Time;durP1;ratioP1;P1;durP2;ratioP2;P2;SDS_P1;SDS_P2;PMS_P1;PMS_P2;Temp;Humidity;BMP_temperature;BMP_pressure;BME280_temperature;BME280_humidity;BME280_pressure;Samples;Min_cycle;Max_cycle;Signal;HPM_P1;HPM_P2
2021/06/09 00:00:50;;;;;;;6.35;5.72;;;18.50;85.00;;;;;;5054923;28;20055;-65
2021/06/09 00:03:17;;;;;;;7.40;5.80;;;18.50;85.10;;;;;;5072242;28;20020;-65
2021/06/09 00:05:43;;;;;;;6.57;5.80;;;18.50;85.30;;;;;;5074441;28;20028;-65
2021/06/09 00:08:08;;;;;;;6.38;5.70;;;18.50;85.30;;;;;;5074411;28;20361;-65
2021/06/09 00:10:34;;;;;;;7.10;6.40;;;18.50;85.50;;;;;;5074308;28;20034;-65
2021/06/09 00:13:01;;;;;;;6.40;5.80;;;18.50;85.60;;;;;;5074364;28;20033;-65
2021/06/09 00:15:28;;;;;;;7.13;5.85;;;18.60;85.70;;;;;;5074024;28;20040;-65
2021/06/09 00:17:53;;;;;;;7.10;5.70;;;18.60;85.80;;;;;;5074131;28;20028;-65
2021/06/09 00:20:22;;;;;;;6.38;5.75;;;18.60;85.60;;;;;;5074074;28;20036;-65
2021/06/09 00:22:48;;;;;;;7.53;5.65;;;18.60;85.80;;;;;;5074382;28;20021;-65
2021/06/09 00:25:18;;;;;;;7.00;5.50;;;18.60;85.80;;;;;;5072530;28;20078;-65
2021/06/09 00:27:49;;;;;;;7.60;6.03;;;18.60;85.60;;;;;;5054478;28;20052;-65
2021/06/09 00:30:19;;;;;;;8.30;5.80;;;18.60;85.60;;;;;;5054126;28;20032;-65
2021/06/09 00:32:45;;;;;;;6.60;5.53;;;18.60;85.80;;;;;;5063779;28;20048;-65
2021/06/09 00:35:11;;;;;;;7.45;5.88;;;18.50;85.70;;;;;;5060218;28;20067;-65
2021/06/09 00:37:37;;;;;;;6.03;5.40;;;18.60;85.60;;;;;;5069716;28;20037;-65
2021/06/09 00:40:08;;;;;;;7.65;6.03;;;18.50;85.70;;;;;;5073879;28;20027;-65
2021/06/09 00:42:34;;;;;;;6.28;5.65;;;18.50;85.70;;;;;;5073976;28;20043;-65
2021/06/09 00:45:00;;;;;;;6.25;5.65;;;18.50;85.80;;;;;;5073060;28;20020;-65
2021/06/09 00:47:26;;;;;;;6.90;5.65;;;18.50;85.80;;;;;;5065129;28;20041;-65
2021/06/09 00:49:52;;;;;;;6.35;5.75;;;18.50;85.90;;;;;;5069584;28;20055;-65
2021/06/09 00:52:25;;;;;;;6.75;5.65;;;18.50;85.90;;;;;;5074046;28;20033;-65
2021/06/09 00:54:51;;;;;;;6.55;5.70;;;18.50;85.80;;;;;;5073319;28;20067;-65
2021/06/09 00:57:18;;;;;;;6.63;5.93;;;18.50;85.90;;;;;;5073452;28;20107;-65
2021/06/09 00:59:44;;;;;;;6.53;5.85;;;18.50;86.70;;;;;;5073043;28;20028;-65
2021/06/09 01:02:10;;;;;;;6.13;5.53;;;18.50;86.10;;;;;;5073632;28;20499;-65
2021/06/09 01:04:36;;;;;;;7.10;5.75;;;18.40;85.90;;;;;;5073781;28;20118;-65
2021/06/09 01:07:03;;;;;;;6.70;6.00;;;18.50;86.10;;;;;;5073529;28;20056;-65
2021/06/09 01:09:29;;;;;;;7.72;6.28;;;18.50;86.00;;;;;;5073377;28;20031;-66
2021/06/09 01:11:55;;;;;;;6.85;5.88;;;18.50;85.80;;;;;;5073728;28;20040;-65
2021/06/09 01:14:22;;;;;;;6.43;5.53;;;18.50;85.80;;;;;;5073381;28;20021;-66
2021/06/09 01:16:50;;;;;;;6.78;6.07;;;18.40;85.70;;;;;;5071719;28;20032;-65
2021/06/09 01:19:17;;;;;;;10.10;7.25;;;18.50;85.70;;;;;;5073456;28;20460;-65
2021/06/09 01:21:42;;;;;;;7.75;6.70;;;18.40;85.70;;;;;;5073539;28;20020;-65
2021/06/09 01:24:08;;;;;;;7.05;6.35;;;18.40;85.60;;;;;;5073428;28;20024;-65
2021/06/09 01:26:35;;;;;;;7.78;6.18;;;18.40;85.80;;;;;;5071427;28;20052;-65
2021/06/09 01:29:02;;;;;;;7.53;5.95;;;18.40;85.70;;;;;;5073791;28;20028;-65
2021/06/09 01:31:28;;;;;;;7.70;5.80;;;18.40;85.70;;;;;;5073604;28;20085;-65
2021/06/09 01:33:54;;;;;;;8.20;6.03;;;18.40;85.90;;;;;;5071584;28;20029;-65
2021/06/09 01:36:22;;;;;;;7.53;6.60;;;18.40;86.00;;;;;;5070855;28;20021;-65
2021/06/09 01:38:50;;;;;;;6.32;5.55;;;18.40;86.10;;;;;;5053404;28;20029;-65
2021/06/09 01:41:24;;;;;;;5.88;5.28;;;18.40;86.10;;;;;;5053449;28;20041;-65
2021/06/09 01:43:52;;;;;;;12.23;5.30;;;18.40;86.20;;;;;;5061755;28;20031;-65
2021/06/09 01:46:17;;;;;;;6.30;5.55;;;18.40;86.20;;;;;;5072359;28;20048;-65
2021/06/09 01:48:47;;;;;;;5.13;4.63;;;18.40;85.90;;;;;;5061862;28;20083;-65
2021/06/09 01:51:13;;;;;;;6.00;4.90;;;18.40;85.70;;;;;;5073138;28;20044;-65
2021/06/09 01:53:38;;;;;;;6.55;5.25;;;18.40;85.80;;;;;;5073327;28;20443;-65
2021/06/09 01:56:04;;;;;;;6.45;5.18;;;18.40;85.40;;;;;;5072466;28;20447;-65
2021/06/09 01:58:30;;;;;;;6.90;5.03;;;18.40;85.50;;;;;;5073308;28;20056;-65
2021/06/09 02:00:56;;;;;;;6.38;5.78;;;18.40;85.70;;;;;;5073034;28;20025;-65
2021/06/09 02:03:22;;;;;;;5.88;5.28;;;18.40;85.20;;;;;;5073004;28;20033;-65
2021/06/09 02:05:48;;;;;;;5.90;5.30;;;18.40;85.50;;;;;;5073104;28;20090;-66
2021/06/09 02:08:15;;;;;;;5.80;5.13;;;18.40;85.60;;;;;;5072959;28;20075;-65
2021/06/09 02:10:43;;;;;;;6.35;4.90;;;18.40;85.40;;;;;;5075404;28;20104;-65
2021/06/09 02:13:15;;;;;;;6.55;4.97;;;18.50;85.40;;;;;;5077016;28;20502;-65
2021/06/09 02:15:44;;;;;;;5.63;4.93;;;18.50;84.90;;;;;;5076199;28;20500;-65
2021/06/09 02:18:12;;;;;;;5.47;4.63;;;18.50;85.10;;;;;;5075826;28;20081;-65
2021/06/09 02:20:42;;;;;;;5.00;4.50;;;18.50;85.20;;;;;;5076380;28;20040;-65
2021/06/09 02:23:20;;;;;;;5.10;4.60;;;18.50;84.80;;;;;;5076081;28;20016;-65
2021/06/09 02:25:52;;;;;;;5.38;4.40;;;18.50;84.70;;;;;;5074778;28;20035;-65
2021/06/09 02:28:19;;;;;;;5.40;4.45;;;18.50;84.60;;;;;;5076646;28;20023;-65
2021/06/09 02:30:47;;;;;;;5.15;4.45;;;18.50;84.80;;;;;;5076375;28;20372;-65
2021/06/09 02:33:14;;;;;;;6.03;4.45;;;18.60;84.80;;;;;;5066218;28;20059;-65
2021/06/09 02:35:42;;;;;;;5.10;4.60;;;18.50;84.60;;;;;;5070860;28;20403;-65
2021/06/09 02:38:09;;;;;;;5.22;4.68;;;18.60;84.70;;;;;;5073351;28;20020;-65
2021/06/09 02:40:36;;;;;;;5.53;4.93;;;18.60;84.80;;;;;;5074846;28;20066;-65
2021/06/09 02:43:02;;;;;;;6.00;5.20;;;18.60;84.70;;;;;;5076123;28;20028;-65
2021/06/09 02:45:28;;;;;;;6.65;5.95;;;18.70;84.80;;;;;;5075870;28;20029;-65
2021/06/09 02:47:59;;;;;;;5.38;4.88;;;18.70;84.70;;;;;;5066982;28;20540;-65
2021/06/09 02:50:26;;;;;;;;;;;18.70;84.70;;;;;;5074399;28;20127;-65
2021/06/09 02:53:09;;;;;;;5.25;4.60;;;18.70;84.40;;;;;;5075984;28;20608;-65
2021/06/09 02:56:13;;;;;;;5.70;4.90;;;18.70;84.60;;;;;;5075072;28;20472;-65
2021/06/09 02:59:32;;;;;;;5.75;4.75;;;18.80;84.50;;;;;;5066233;28;20021;-65
2021/06/09 03:02:06;;;;;;;5.53;5.00;;;18.80;84.40;;;;;;4992657;28;20526;-65
2021/06/09 03:04:47;;;;;;;5.07;4.57;;;18.80;84.50;;;;;;5053191;28;20037;-66
2021/06/09 03:07:30;;;;;;;5.30;4.80;;;18.90;84.40;;;;;;5055023;28;20393;-65
2021/06/09 03:10:09;;;;;;;6.13;4.88;;;18.90;84.40;;;;;;5070662;28;20029;-65
2021/06/09 03:13:20;;;;;;;5.60;4.93;;;18.90;84.40;;;;;;5075808;28;20025;-66
2021/06/09 03:15:57;;;;;;;5.10;4.60;;;19.00;84.20;;;;;;5063374;28;20381;-66
2021/06/09 03:18:28;;;;;;;6.20;4.72;;;19.00;84.20;;;;;;5075733;28;20020;-66
2021/06/09 03:21:09;;;;;;;5.82;5.22;;;19.10;84.30;;;;;;5075360;28;20456;-66
2021/06/09 03:24:15;;;;;;;5.10;4.60;;;19.10;84.20;;;;;;5075912;28;20025;-65
2021/06/09 03:26:57;;;;;;;5.15;4.65;;;19.20;84.00;;;;;;4991215;28;20037;-66
2021/06/09 03:29:46;;;;;;;5.32;4.82;;;19.40;84.00;;;;;;4992357;28;20117;-66
2021/06/09 03:32:29;;;;;;;5.93;4.57;;;19.60;84.70;;;;;;5052241;28;20543;-66
2021/06/09 03:35:13;;;;;;;5.05;4.55;;;19.90;85.90;;;;;;5067145;28;20036;-66
2021/06/09 03:37:46;;;;;;;4.53;4.13;;;20.40;85.90;;;;;;5059841;28;20029;-66
2021/06/09 03:40:17;;;;;;;5.00;4.25;;;21.00;84.70;;;;;;5055424;28;20037;-65
2021/06/09 03:42:44;;;;;;;;;;;21.60;83.10;;;;;;5060538;28;20024;-64
2021/06/09 03:45:12;;;;;;;3.72;3.42;;;22.20;81.80;;;;;;5074831;28;19962;-64
2021/06/09 03:47:39;;;;;;;3.88;3.47;;;23.10;80.80;;;;;;5068034;28;20052;-64
2021/06/09 03:50:07;;;;;;;5.75;4.20;;;24.20;76.60;;;;;;5070473;28;20040;-64
2021/06/09 03:52:36;;;;;;;5.82;3.67;;;25.20;73.10;;;;;;5075203;28;20025;-64
2021/06/09 03:55:08;;;;;;;4.45;3.53;;;26.10;70.30;;;;;;5074688;28;20520;-64
2021/06/09 03:57:34;;;;;;;4.07;3.38;;;27.00;67.80;;;;;;5074823;28;20071;-64
2021/06/09 04:00:01;;;;;;;3.42;3.13;;;27.90;65.20;;;;;;5074568;28;20123;-64
2021/06/09 04:02:29;;;;;;;3.67;3.38;;;28.70;63.00;;;;;;5074952;28;20410;-64
2021/06/09 04:04:57;;;;;;;3.47;3.15;;;29.30;60.90;;;;;;5075036;28;20456;-64
2021/06/09 04:07:25;;;;;;;3.70;3.17;;;29.90;59.40;;;;;;5074624;28;20472;-64
2021/06/09 04:09:52;;;;;;;4.78;2.85;;;30.50;58.00;;;;;;5074558;28;20027;-64
2021/06/09 04:12:20;;;;;;;3.95;2.75;;;31.10;56.60;;;;;;5074626;28;20029;-64
2021/06/09 04:14:48;;;;;;;3.50;3.20;;;31.60;55.40;;;;;;5073889;28;20039;-64
2021/06/09 04:17:18;;;;;;;3.67;3.38;;;32.20;54.00;;;;;;5074390;28;20032;-64
2021/06/09 04:19:47;;;;;;;3.25;2.95;;;32.70;53.00;;;;;;5074410;28;20479;-64
2021/06/09 04:22:12;;;;;;;3.85;2.83;;;33.10;51.90;;;;;;5074193;28;20028;-64
2021/06/09 04:24:39;;;;;;;3.00;2.80;;;33.30;51.00;;;;;;5074229;28;20420;-64
2021/06/09 04:27:09;;;;;;;3.10;2.80;;;33.70;50.50;;;;;;5072784;28;20427;-64
2021/06/09 04:29:36;;;;;;;2.92;2.70;;;34.00;49.60;;;;;;5074199;28;20074;-64
2021/06/09 04:32:05;;;;;;;2.90;2.50;;;34.40;49.30;;;;;;5073630;28;20028;-64
2021/06/09 04:34:46;;;;;;;3.10;2.83;;;34.70;48.60;;;;;;5069441;28;20377;-64
2021/06/09 04:37:13;;;;;;;3.90;3.10;;;35.10;48.40;;;;;;5053995;28;20060;-64
2021/06/09 04:39:40;;;;;;;3.05;2.85;;;35.40;47.40;;;;;;5060140;28;20033;-64
2021/06/09 04:42:07;;;;;;;2.97;2.78;;;35.70;47.10;;;;;;5073797;28;20028;-64
2021/06/09 04:44:33;;;;;;;3.28;2.97;;;36.00;46.60;;;;;;5074030;28;20035;-64
2021/06/09 04:47:00;;;;;;;3.30;2.95;;;36.20;46.00;;;;;;5071587;28;20086;-64
2021/06/09 04:49:34;;;;;;;2.83;2.63;;;36.50;45.50;;;;;;5058143;28;20090;-64
2021/06/09 04:52:00;;;;;;;3.00;2.80;;;36.70;45.30;;;;;;5067725;28;20115;-64
2021/06/09 04:54:27;;;;;;;3.20;2.90;;;36.90;44.80;;;;;;5073246;28;20054;-64
2021/06/09 04:56:52;;;;;;;3.30;2.70;;;37.00;44.20;;;;;;5073845;28;20021;-64
2021/06/09 04:59:18;;;;;;;3.78;2.60;;;37.20;44.10;;;;;;5072354;28;20399;-64
2021/06/09 05:01:44;;;;;;;2.88;2.65;;;37.30;44.20;;;;;;5073126;28;20036;-64
2021/06/09 05:04:09;;;;;;;2.72;2.53;;;37.40;43.60;;;;;;5071920;28;20468;-64
2021/06/09 05:06:35;;;;;;;2.92;2.67;;;37.50;43.30;;;;;;5067634;28;20651;-64
2021/06/09 05:09:03;;;;;;;2.97;2.70;;;37.50;43.00;;;;;;5072237;28;20589;-64
2021/06/09 05:11:35;;;;;;;2.83;2.63;;;37.70;42.50;;;;;;5073001;28;20024;-64
2021/06/09 05:14:02;;;;;;;2.90;2.70;;;37.70;42.50;;;;;;5068465;28;20052;-64
2021/06/09 05:16:29;;;;;;;3.20;2.70;;;37.70;42.20;;;;;;5071843;28;20039;-64
2021/06/09 05:18:57;;;;;;;3.08;2.63;;;37.60;41.70;;;;;;5068346;28;20017;-64
2021/06/09 05:21:28;;;;;;;3.05;2.75;;;37.50;41.60;;;;;;5070645;28;20028;-64
2021/06/09 05:23:55;;;;;;;2.97;2.78;;;37.10;41.50;;;;;;5066210;28;20033;-64
2021/06/09 05:26:23;;;;;;;3.25;2.95;;;36.30;41.90;;;;;;5061578;28;20016;-64
2021/06/09 05:28:56;;;;;;;3.80;3.40;;;35.40;42.60;;;;;;5068085;28;20025;-65
2021/06/09 05:31:24;;;;;;;3.30;3.00;;;34.30;43.50;;;;;;5061910;28;20028;-65
2021/06/09 05:33:53;;;;;;;3.42;3.13;;;33.20;44.80;;;;;;5065850;28;20036;-64
2021/06/09 05:36:20;;;;;;;4.72;3.38;;;32.20;45.90;;;;;;5067018;28;20025;-65
2021/06/09 05:38:46;;;;;;;4.32;3.08;;;31.30;47.10;;;;;;5066916;28;20047;-65
2021/06/09 05:41:12;;;;;;;3.92;3.53;;;30.50;48.30;;;;;;5065945;28;20104;-64
2021/06/09 05:43:40;;;;;;;5.68;3.60;;;29.80;49.30;;;;;;5063937;28;20118;-64
2021/06/09 05:46:08;;;;;;;3.60;3.10;;;29.20;50.40;;;;;;5070170;28;20035;-64
2021/06/09 05:48:41;;;;;;;5.60;3.45;;;28.70;51.30;;;;;;5062298;28;20559;-64
2021/06/09 05:51:10;;;;;;;4.15;3.55;;;28.30;52.00;;;;;;5065641;28;20650;-62
2021/06/09 05:53:35;;;;;;;3.70;3.30;;;27.90;52.90;;;;;;5062724;28;20056;-62
2021/06/09 05:56:02;;;;;;;3.90;3.58;;;27.60;53.60;;;;;;5062705;28;20583;-64
2021/06/09 05:58:27;;;;;;;3.15;2.95;;;27.30;53.80;;;;;;5062073;28;20032;-64
2021/06/09 06:00:56;;;;;;;4.18;3.35;;;27.10;54.50;;;;;;5068162;28;20547;-65
2021/06/09 06:03:23;;;;;;;4.05;3.65;;;26.90;54.70;;;;;;5066572;28;20043;-61
2021/06/09 06:05:58;;;;;;;4.40;4.00;;;26.70;55.10;;;;;;5067058;28;20490;-60
2021/06/09 06:08:26;;;;;;;4.05;3.72;;;26.50;55.80;;;;;;5068611;28;20031;-59
2021/06/09 06:10:52;;;;;;;4.97;3.70;;;26.40;56.40;;;;;;5065320;28;20067;-61
2021/06/09 06:13:19;;;;;;;4.07;3.53;;;26.20;56.60;;;;;;5062687;28;20040;-61
2021/06/09 06:15:45;;;;;;;3.58;3.13;;;26.20;56.80;;;;;;5067013;28;20578;-63
2021/06/09 06:18:15;;;;;;;3.67;3.38;;;26.00;57.00;;;;;;5060735;28;20033;-63
2021/06/09 06:20:45;;;;;;;3.67;3.35;;;25.90;57.40;;;;;;5065495;28;20040;-62
2021/06/09 06:23:13;;;;;;;3.78;3.20;;;25.80;57.60;;;;;;5065473;28;20031;-52
2021/06/09 06:25:43;;;;;;;4.30;3.28;;;25.80;58.10;;;;;;5065388;28;20664;-60
2021/06/09 06:28:08;;;;;;;4.10;3.47;;;25.70;58.50;;;;;;5058820;28;20025;-61
2021/06/09 06:30:34;;;;;;;4.30;3.90;;;25.70;59.20;;;;;;5057633;28;20037;-62
2021/06/09 06:33:01;;;;;;;4.45;3.35;;;25.70;58.50;;;;;;5061087;28;20047;-61
2021/06/09 06:35:28;;;;;;;4.00;3.58;;;25.60;58.70;;;;;;5057109;28;20101;-61
2021/06/09 06:37:53;;;;;;;3.58;3.25;;;25.60;58.80;;;;;;5065306;28;20400;-59
2021/06/09 06:40:23;;;;;;;3.78;3.40;;;25.60;59.00;;;;;;5060072;28;20039;-65
2021/06/09 06:42:50;;;;;;;5.20;3.30;;;25.50;59.10;;;;;;5061364;28;21136;-60
2021/06/09 06:45:17;;;;;;;4.43;3.40;;;25.50;59.20;;;;;;5055713;28;20024;-61
2021/06/09 06:47:44;;;;;;;4.93;3.50;;;25.40;59.40;;;;;;5057309;28;20028;-61
2021/06/09 06:50:13;;;;;;;3.80;3.50;;;25.40;59.80;;;;;;5057362;28;20048;-63
2021/06/09 06:52:40;;;;;;;4.00;3.53;;;25.40;59.70;;;;;;5059733;28;20078;-63
2021/06/09 06:55:07;;;;;;;5.22;3.47;;;25.40;60.00;;;;;;5060448;28;20174;-62
2021/06/09 06:57:34;;;;;;;4.78;3.45;;;25.30;60.20;;;;;;5056075;28;20460;-63
2021/06/09 07:00:04;;;;;;;4.72;3.47;;;25.30;60.40;;;;;;5058725;28;20377;-63
2021/06/09 07:02:32;;;;;;;4.47;3.13;;;25.30;60.70;;;;;;5051962;28;20128;-63
2021/06/09 07:04:58;;;;;;;3.38;3.08;;;25.30;60.80;;;;;;5056540;28;20020;-64
2021/06/09 07:07:25;;;;;;;3.58;3.28;;;25.20;60.70;;;;;;5057357;28;22612;-64
2021/06/09 07:09:51;;;;;;;4.97;3.13;;;25.20;60.80;;;;;;5057282;28;20031;-62
2021/06/09 07:12:17;;;;;;;3.95;3.25;;;25.20;60.90;;;;;;5050961;28;20043;-62
2021/06/09 07:14:43;;;;;;;3.47;3.17;;;25.20;61.20;;;;;;5055534;28;20036;-63
2021/06/09 07:17:11;;;;;;;3.40;3.10;;;25.20;61.30;;;;;;5056065;28;20024;-62
2021/06/09 07:19:38;;;;;;;3.03;2.72;;;25.20;61.20;;;;;;5054137;28;20036;-63
2021/06/09 07:22:06;;;;;;;3.53;3.20;;;25.20;60.90;;;;;;5047970;28;20513;-65
2021/06/09 07:24:33;;;;;;;3.10;2.80;;;25.20;61.10;;;;;;5052390;28;20052;-61
2021/06/09 07:26:59;;;;;;;3.20;2.90;;;25.20;61.20;;;;;;5047138;28;20070;-62
2021/06/09 07:29:27;;;;;;;3.50;3.05;;;25.20;61.20;;;;;;5055954;28;20067;-59
2021/06/09 07:31:54;;;;;;;4.28;3.42;;;25.10;61.40;;;;;;5051193;28;20040;-62
2021/06/09 07:34:20;;;;;;;3.65;3.28;;;25.20;61.40;;;;;;5056487;28;20199;-61
2021/06/09 07:36:54;;;;;;;2.88;2.67;;;25.20;61.20;;;;;;5057037;28;20047;-61
2021/06/09 07:39:37;;;;;;;3.10;2.80;;;25.10;61.20;;;;;;5057119;28;20032;-61
2021/06/09 07:42:06;;;;;;;3.30;3.00;;;25.10;61.10;;;;;;5055518;28;20393;-61
2021/06/09 07:45:08;;;;;;;3.25;2.95;;;25.10;61.60;;;;;;5051418;28;20614;-64
2021/06/09 07:47:36;;;;;;;3.15;2.88;;;25.10;61.60;;;;;;5049650;28;20023;-62
2021/06/09 07:50:06;;;;;;;3.08;2.78;;;25.10;61.30;;;;;;5054864;28;20071;-62
2021/06/09 07:52:35;;;;;;;3.17;2.88;;;25.10;61.20;;;;;;5047403;28;20029;-63
2021/06/09 07:55:01;;;;;;;3.47;3.00;;;25.10;61.40;;;;;;5056303;28;20032;-62
2021/06/09 07:57:33;;;;;;;2.95;2.75;;;25.00;61.30;;;;;;5037263;28;20987;-63
2021/06/09 08:00:00;;;;;;;3.38;3.08;;;25.10;61.40;;;;;;5049203;28;20028;-59
2021/06/09 08:02:26;;;;;;;3.33;2.92;;;25.10;61.50;;;;;;5051644;28;20551;-59
2021/06/09 08:04:53;;;;;;;3.30;3.00;;;25.10;61.40;;;;;;5049699;28;20155;-60
2021/06/09 08:07:19;;;;;;;3.72;3.00;;;25.10;61.20;;;;;;5046319;28;20036;-59
2021/06/09 08:09:45;;;;;;;3.20;2.92;;;25.10;61.40;;;;;;5053178;28;20024;-59
2021/06/09 08:12:11;;;;;;;3.13;2.83;;;25.10;61.30;;;;;;5051949;28;20377;-59
2021/06/09 08:14:38;;;;;;;3.28;2.97;;;25.10;61.40;;;;;;5055921;28;20121;-57
2021/06/09 08:17:06;;;;;;;3.45;2.78;;;25.10;61.10;;;;;;5053150;28;20564;-59
2021/06/09 08:19:32;;;;;;;2.72;2.53;;;25.00;61.20;;;;;;5049616;28;20119;-60
2021/06/09 08:21:58;;;;;;;3.25;2.92;;;25.00;61.20;;;;;;5045137;28;20017;-58
2021/06/09 08:24:24;;;;;;;3.05;2.75;;;25.00;61.20;;;;;;5046130;28;20086;-60
2021/06/09 08:26:50;;;;;;;3.92;2.92;;;25.00;61.10;;;;;;5045154;28;20500;-60
2021/06/09 08:29:16;;;;;;;3.35;3.05;;;24.90;61.20;;;;;;5053573;28;20032;-59
2021/06/09 08:31:42;;;;;;;3.50;2.88;;;24.90;61.50;;;;;;5052687;28;20272;-60
2021/06/09 08:34:08;;;;;;;3.35;3.05;;;24.90;61.70;;;;;;5046795;28;20033;-59
2021/06/09 08:36:35;;;;;;;3.00;2.70;;;24.90;61.80;;;;;;5055235;28;20028;-58
2021/06/09 08:39:04;;;;;;;4.30;2.88;;;24.90;62.00;;;;;;5052096;28;21703;-60
2021/06/09 08:41:33;;;;;;;3.33;3.03;;;24.90;61.80;;;;;;5049210;28;20035;-59
2021/06/09 08:44:00;;;;;;;3.40;3.13;;;24.80;61.90;;;;;;5052598;28;20039;-59
2021/06/09 08:46:27;;;;;;;3.28;2.88;;;24.80;62.00;;;;;;5045797;28;20029;-59
2021/06/09 08:48:55;;;;;;;4.25;2.85;;;24.80;62.00;;;;;;5046725;28;20055;-60
2021/06/09 08:51:21;;;;;;;3.15;2.90;;;24.70;62.00;;;;;;5053310;28;20067;-60
2021/06/09 08:53:50;;;;;;;3.47;3.17;;;24.70;62.10;;;;;;5050994;28;20031;-59
2021/06/09 08:56:17;;;;;;;3.42;3.13;;;24.70;62.10;;;;;;5053426;28;20055;-60
2021/06/09 08:58:43;;;;;;;3.67;2.92;;;24.70;62.20;;;;;;5052784;28;20115;-59
2021/06/09 09:01:11;;;;;;;3.30;3.00;;;24.70;62.30;;;;;;5046744;28;20991;-60
2021/06/09 09:03:40;;;;;;;3.03;2.80;;;24.60;62.40;;;;;;5055537;28;20477;-58
2021/06/09 09:06:06;;;;;;;3.78;2.83;;;24.60;62.50;;;;;;5052223;28;20468;-59
2021/06/09 09:08:32;;;;;;;4.05;3.42;;;24.60;62.60;;;;;;5059268;28;20071;-60
2021/06/09 09:10:58;;;;;;;3.17;2.97;;;24.50;62.60;;;;;;5044135;28;20078;-58
2021/06/09 09:13:25;;;;;;;3.20;2.92;;;24.50;62.70;;;;;;5045626;28;20028;-59
2021/06/09 09:15:55;;;;;;;4.30;3.17;;;24.50;62.70;;;;;;5050531;28;20511;-59
2021/06/09 09:18:35;;;;;;;3.40;3.10;;;24.50;63.00;;;;;;5051758;28;20908;-59
2021/06/09 09:21:01;;;;;;;3.22;2.92;;;24.50;63.00;;;;;;5049400;28;20035;-59
2021/06/09 09:23:29;;;;;;;2.88;2.67;;;24.40;62.90;;;;;;5054083;28;20033;-58
2021/06/09 09:25:57;;;;;;;3.22;2.92;;;24.40;63.20;;;;;;5051035;28;20025;-60
2021/06/09 09:28:31;;;;;;;4.35;2.92;;;24.40;63.80;;;;;;5046290;28;20043;-60
2021/06/09 09:31:12;;;;;;;3.13;2.88;;;24.40;62.90;;;;;;5047926;28;20029;-60
2021/06/09 09:33:38;;;;;;;2.97;2.67;;;24.40;63.10;;;;;;5040699;28;20066;-59
2021/06/09 09:36:33;;;;;;;3.15;2.88;;;24.40;63.40;;;;;;5052570;28;20136;-57
2021/06/09 09:38:59;;;;;;;3.17;2.88;;;24.40;63.30;;;;;;5043691;28;20384;-58
2021/06/09 09:41:33;;;;;;;3.83;2.95;;;24.40;63.40;;;;;;5055470;28;20400;-58
2021/06/09 09:44:01;;;;;;;3.22;2.88;;;24.40;63.40;;;;;;5049929;28;20136;-58
2021/06/09 09:46:32;;;;;;;2.92;2.60;;;24.40;63.50;;;;;;5048981;28;20686;-61
2021/06/09 09:49:17;;;;;;;3.75;3.33;;;24.40;63.60;;;;;;5049203;28;20056;-59
2021/06/09 09:51:50;;;;;;;2.80;2.50;;;24.40;63.30;;;;;;5043429;28;20396;-60
2021/06/09 09:54:35;;;;;;;4.30;3.00;;;24.40;63.60;;;;;;5048974;28;20036;-60
2021/06/09 09:57:12;;;;;;;2.60;2.40;;;24.40;63.30;;;;;;5051513;28;20109;-60
2021/06/09 09:59:39;;;;;;;4.13;3.10;;;24.40;63.40;;;;;;5049678;28;20388;-59
2021/06/09 10:02:16;;;;;;;3.00;2.70;;;24.50;63.40;;;;;;5046037;28;20538;-58
2021/06/09 10:04:49;;;;;;;2.75;2.55;;;24.40;63.30;;;;;;5040473;28;20115;-59
2021/06/09 10:07:15;;;;;;;3.10;2.90;;;24.50;63.50;;;;;;5036016;28;20043;-59
2021/06/09 10:09:44;;;;;;;2.70;2.50;;;24.50;63.30;;;;;;5049559;28;20020;-61
2021/06/09 10:12:13;;;;;;;2.75;2.55;;;24.50;63.10;;;;;;5053846;28;20035;-60
2021/06/09 10:14:47;;;;;;;3.63;2.53;;;24.50;63.00;;;;;;5050990;28;20439;-60
2021/06/09 10:17:19;;;;;;;2.65;2.45;;;24.50;63.00;;;;;;5054044;28;20915;-59
2021/06/09 10:19:59;;;;;;;2.58;2.38;;;24.50;63.00;;;;;;5052407;28;20599;-60
2021/06/09 10:22:28;;;;;;;2.60;2.40;;;24.50;62.90;;;;;;5052077;28;20935;-60
2021/06/09 10:25:01;;;;;;;2.60;2.40;;;24.50;62.40;;;;;;5056969;28;20032;-61
2021/06/09 10:27:48;;;;;;;2.70;2.50;;;24.50;62.40;;;;;;5058112;28;20085;-60
2021/06/09 10:30:19;;;;;;;2.70;2.50;;;24.50;62.20;;;;;;5042342;28;20025;-60
2021/06/09 10:32:52;;;;;;;2.95;2.33;;;24.50;62.20;;;;;;5053742;28;20407;-60
2021/06/09 10:35:20;;;;;;;2.80;2.60;;;24.50;62.30;;;;;;5050246;28;20128;-60
2021/06/09 10:37:47;;;;;;;3.10;2.50;;;24.50;62.30;;;;;;5056103;28;20047;-60
2021/06/09 10:40:16;;;;;;;2.70;2.50;;;24.60;62.20;;;;;;5056501;28;20040;-60
2021/06/09 10:42:43;;;;;;;2.78;2.50;;;24.60;63.10;;;;;;5058274;28;20033;-60
2021/06/09 10:45:11;;;;;;;2.50;2.30;;;24.60;62.30;;;;;;5061625;28;20143;-60
2021/06/09 10:47:38;;;;;;;2.85;2.55;;;24.60;62.50;;;;;;5057048;28;20114;-58
2021/06/09 10:50:08;;;;;;;3.28;2.72;;;24.70;62.20;;;;;;5055097;28;20496;-60
2021/06/09 10:52:34;;;;;;;3.20;2.90;;;24.70;62.50;;;;;;5054434;28;20094;-59
2021/06/09 10:55:03;;;;;;;4.20;2.70;;;24.70;62.50;;;;;;5059944;28;20044;-59
2021/06/09 10:57:29;;;;;;;2.92;2.72;;;24.70;62.30;;;;;;5063392;28;20592;-59
2021/06/09 10:59:55;;;;;;;2.63;2.42;;;24.70;62.00;;;;;;5053321;28;20081;-64
2021/06/09 11:02:23;;;;;;;2.97;2.70;;;24.70;62.20;;;;;;5045911;28;21137;-64
2021/06/09 11:04:52;;;;;;;2.67;2.47;;;24.80;62.20;;;;;;5060356;28;20024;-61
2021/06/09 11:07:44;;;;;;;4.18;2.88;;;24.80;62.20;;;;;;5064350;28;20026;-61
2021/06/09 11:10:15;;;;;;;3.03;2.83;;;24.80;62.30;;;;;;5055920;28;20052;-61
2021/06/09 11:12:49;;;;;;;3.00;2.80;;;24.70;62.50;;;;;;5056177;28;20060;-60
2021/06/09 11:15:23;;;;;;;2.97;2.65;;;24.70;63.20;;;;;;5058285;28;20058;-61
2021/06/09 11:17:53;;;;;;;5.65;3.10;;;24.70;62.70;;;;;;5052582;28;20500;-64
2021/06/09 11:20:20;;;;;;;2.65;2.45;;;24.70;62.70;;;;;;5054258;28;20106;-62
2021/06/09 11:22:48;;;;;;;3.50;2.90;;;24.70;62.60;;;;;;5051409;28;20032;-61
2021/06/09 11:25:18;;;;;;;3.45;3.03;;;24.70;62.90;;;;;;5054769;28;20063;-61
2021/06/09 11:27:51;;;;;;;3.17;2.90;;;24.60;63.10;;;;;;5047000;28;20083;-60
2021/06/09 11:30:26;;;;;;;2.70;2.50;;;24.60;63.10;;;;;;5050331;28;20127;-62
2021/06/09 11:32:55;;;;;;;3.45;2.97;;;24.50;63.20;;;;;;5042218;28;20036;-61
2021/06/09 11:35:40;;;;;;;3.10;2.80;;;24.50;63.20;;;;;;5046791;28;20081;-62
2021/06/09 11:38:12;;;;;;;3.10;2.80;;;24.50;63.10;;;;;;5048259;28;20097;-61
2021/06/09 11:40:48;;;;;;;2.75;2.45;;;24.40;62.70;;;;;;5054172;28;20056;-60
2021/06/09 11:43:26;;;;;;;3.13;2.58;;;24.40;63.00;;;;;;5064122;28;20024;-61
2021/06/09 11:45:53;;;;;;;3.47;2.88;;;24.40;62.90;;;;;;5049683;28;20586;-62
2021/06/09 11:48:21;;;;;;;2.90;2.67;;;24.40;63.10;;;;;;5044557;28;20052;-62
2021/06/09 11:50:47;;;;;;;3.10;2.80;;;24.40;63.30;;;;;;5058092;28;20067;-63
2021/06/09 11:53:14;;;;;;;3.00;2.70;;;24.40;63.10;;;;;;5043654;28;20033;-61
2021/06/09 11:55:43;;;;;;;2.78;2.58;;;24.50;63.10;;;;;;5043896;28;20028;-62
2021/06/09 11:58:16;;;;;;;3.15;2.85;;;24.50;63.10;;;;;;5045435;28;20036;-63
2021/06/09 12:01:07;;;;;;;3.20;2.90;;;24.50;63.10;;;;;;5038114;28;20123;-61
2021/06/09 12:03:33;;;;;;;2.80;2.60;;;24.60;63.80;;;;;;5048966;28;20555;-65
2021/06/09 12:06:10;;;;;;;3.78;2.83;;;24.60;63.60;;;;;;5049823;28;20412;-62
2021/06/09 12:08:36;;;;;;;3.75;2.88;;;24.60;63.40;;;;;;5047256;28;20124;-62
2021/06/09 12:11:02;;;;;;;2.90;2.70;;;24.70;63.40;;;;;;5052454;28;20093;-63
2021/06/09 12:13:28;;;;;;;3.50;2.80;;;24.70;63.20;;;;;;5053341;28;20048;-63
2021/06/09 12:16:13;;;;;;;3.05;2.83;;;24.80;63.40;;;;;;5044860;28;20044;-62
2021/06/09 12:18:39;;;;;;;2.65;2.45;;;24.80;63.20;;;;;;5051968;28;20496;-62
2021/06/09 12:21:11;;;;;;;3.42;3.13;;;24.90;63.40;;;;;;5050039;28;20036;-59
2021/06/09 12:23:49;;;;;;;3.75;3.00;;;25.00;63.40;;;;;;5053279;28;20040;-59
2021/06/09 12:26:15;;;;;;;3.10;2.75;;;25.00;63.00;;;;;;5055784;28;20461;-60
2021/06/09 12:28:40;;;;;;;3.17;2.88;;;25.10;63.20;;;;;;5049776;28;20159;-61
2021/06/09 12:31:11;;;;;;;2.90;2.70;;;25.10;62.80;;;;;;5050098;28;20066;-60
2021/06/09 12:33:42;;;;;;;4.22;2.85;;;25.20;62.60;;;;;;5044828;28;20080;-63
2021/06/09 12:36:15;;;;;;;3.20;2.90;;;25.20;62.60;;;;;;5050483;28;20044;-65
2021/06/09 12:38:41;;;;;;;3.92;2.90;;;25.30;62.50;;;;;;5051713;28;20127;-63
2021/06/09 12:41:11;;;;;;;3.08;2.88;;;25.20;62.30;;;;;;5051365;28;20078;-62
2021/06/09 12:43:39;;;;;;;3.47;3.10;;;25.30;62.50;;;;;;5050408;28;21121;-65
2021/06/09 12:46:05;;;;;;;3.38;3.08;;;25.30;62.50;;;;;;5054670;28;20481;-63
2021/06/09 12:48:36;;;;;;;3.13;2.85;;;25.30;62.10;;;;;;5050024;28;20060;-63
2021/06/09 12:51:03;;;;;;;3.22;2.95;;;25.40;62.10;;;;;;5044934;28;20033;-62
2021/06/09 12:53:32;;;;;;;2.95;2.75;;;25.40;62.30;;;;;;5047880;28;20033;-64
2021/06/09 12:56:02;;;;;;;4.07;2.92;;;25.40;61.90;;;;;;5050355;28;20021;-62
2021/06/09 12:58:30;;;;;;;3.03;2.75;;;25.30;62.00;;;;;;5053641;28;20032;-63
2021/06/09 13:01:12;;;;;;;3.25;2.80;;;25.20;62.60;;;;;;5045127;28;20418;-60